Lovell, ME

6:28 AM EDT on August 05, 2015 (GMT -0400)
Creeper Hill, NW Cove Kezar Lake | | Change Station
CLOSE
Current Station
Personal Weather Station
Location: Stow, ME
Elevation: 385 ft
Nearby Weather Stations

Elev 385 ft 44.17 °N, 70.94 °W | Updated 23 seconds ago

Partly Cloudy
Partly Cloudy
56.9 °F
Feels Like 56.9 °F
N
0.0
Wind Variable Wind from West
Gusts 0.0 mph

Today
High -- | Low -- °F
--% Chance of Precip.
Yesterday
High -- | Low -- °F
Precip. -- in
5:35 AM 8:03 PM
Waning Gibbous, 68% visible
Pressure 29.87 in
Visibility 10.0 miles
Clouds Clear
Dew Point 56 °F
Humidity 98%
Rainfall 0.00 in
Snow Depth Not available.
UV 0 out of 12
Pollen 4.90 out of 12
Air Quality Not available.
Flu Activity Not available.
METAR KIZG 050954Z AUTO 31003KT 10SM CLR 12/12 A2987 RMK AO2 SLP115 T01170117

More Conditions Fewer Conditions

Pressure 29.87 in
Visibility 10.0 miles
Clouds Clear
Dew Point 56 °F
Humidity 98%
Rainfall 0.00 in
Snow Depth Not available.
UV 0 out of 12
Pollen 4.90 out of 12
Air Quality Not available.
Flu Activity Not available.
METAR KIZG 050954Z AUTO 31003KT 10SM CLR 12/12 A2987 RMK AO2 SLP115 T01170117

More Conditions Fewer Conditions

10-Day Weather Forecast

×

Almanac

Astronomy

Aug. 05, 2015 Rise Set
Actual Time
Civil Twilight
Nautical Twilight
Astronomical Twilight
Moon
Length of Visible Light
Length of Day
Tomorrow will be .
, % of the Moon is Illuminated

Today's Extremes

State Highs State Lows

Community

WunderPhotos

Upload Photos

1,844,113 photos uploaded!

WunderBlogs® & News

Nearby

Air Quality

  Air Quality AQ Index Pollutant
Not available.

Snow Depth

Station Depth Elevation

Earthquake Activity

City Distance Mag. Time & Date
Minimum magnitude displayed is 2.5.

Coastal Water Temperatures

Place Temperature

Stations

Nearby Weather Stations

Station Location Temp. Windchill Dew Point Humidity Wind Precip. Elev Updated Type